sensor_id;sensor_type;location;lat;lon;timestamp;temperature;humidity
2387;DHT22;49473;50.772;8.768;2023-11-19T00:00:15;7.70;99.90
2387;DHT22;49473;50.772;8.768;2023-11-19T00:02:42;7.80;99.90
2387;DHT22;49473;50.772;8.768;2023-11-19T00:05:10;7.70;99.90
2387;DHT22;49473;50.772;8.768;2023-11-19T00:07:37;7.80;99.90
2387;DHT22;49473;50.772;8.768;2023-11-19T00:10:07;7.70;99.90
2387;DHT22;49473;50.772;8.768;2023-11-19T00:12:36;7.70;99.90
2387;DHT22;49473;50.772;8.768;2023-11-19T00:15:06;7.70;99.90
2387;DHT22;49473;50.772;8.768;2023-11-19T00:17:36;7.80;99.90
2387;DHT22;49473;50.772;8.768;2023-11-19T00:20:04;7.80;99.90
2387;DHT22;49473;50.772;8.768;2023-11-19T00:22:31;7.80;99.90
2387;DHT22;49473;50.772;8.768;2023-11-19T00:24:59;7.80;99.90
2387;DHT22;49473;50.772;8.768;2023-11-19T00:27:25;7.90;99.90
2387;DHT22;49473;50.772;8.768;2023-11-19T00:29:52;7.90;99.90
2387;DHT22;49473;50.772;8.768;2023-11-19T00:32:20;7.90;99.90
2387;DHT22;49473;50.772;8.768;2023-11-19T00:34:47;8.00;99.90
2387;DHT22;49473;50.772;8.768;2023-11-19T00:37:14;7.90;99.90
2387;DHT22;49473;50.772;8.768;2023-11-19T00:39:40;8.00;99.90
2387;DHT22;49473;50.772;8.768;2023-11-19T00:42:07;8.00;99.90
2387;DHT22;49473;50.772;8.768;2023-11-19T00:44:35;8.00;99.90
2387;DHT22;49473;50.772;8.768;2023-11-19T00:47:03;8.00;99.90
2387;DHT22;49473;50.772;8.768;2023-11-19T00:49:32;8.00;99.90
2387;DHT22;49473;50.772;8.768;2023-11-19T00:51:59;8.00;99.90
2387;DHT22;49473;50.772;8.768;2023-11-19T00:54:27;8.00;99.90
2387;DHT22;49473;50.772;8.768;2023-11-19T00:56:54;8.00;99.90
2387;DHT22;49473;50.772;8.768;2023-11-19T00:59:21;8.00;99.90
2387;DHT22;49473;50.772;8.768;2023-11-19T01:01:48;8.00;99.90
2387;DHT22;49473;50.772;8.768;2023-11-19T01:04:16;8.00;99.90
2387;DHT22;49473;50.772;8.768;2023-11-19T01:06:45;8.00;99.90
2387;DHT22;49473;50.772;8.768;2023-11-19T01:09:11;8.10;99.90
2387;DHT22;49473;50.772;8.768;2023-11-19T01:11:38;8.10;99.90
2387;DHT22;49473;50.772;8.768;2023-11-19T01:14:05;8.10;99.90
2387;DHT22;49473;50.772;8.768;2023-11-19T01:16:32;8.20;99.90
2387;DHT22;49473;50.772;8.768;2023-11-19T01:18:58;8.10;99.90
2387;DHT22;49473;50.772;8.768;2023-11-19T01:21:29;8.10;99.90
2387;DHT22;49473;50.772;8.768;2023-11-19T01:23:57;8.10;99.90
2387;DHT22;49473;50.772;8.768;2023-11-19T01:26:25;8.10;99.90
2387;DHT22;49473;50.772;8.768;2023-11-19T01:28:52;8.10;99.90
2387;DHT22;49473;50.772;8.768;2023-11-19T01:31:19;8.20;99.90
2387;DHT22;49473;50.772;8.768;2023-11-19T01:33:45;8.20;99.90
2387;DHT22;49473;50.772;8.768;2023-11-19T01:36:13;8.20;99.90
2387;DHT22;49473;50.772;8.768;2023-11-19T01:38:40;8.20;99.90
2387;DHT22;49473;50.772;8.768;2023-11-19T01:41:08;8.20;99.90
2387;DHT22;49473;50.772;8.768;2023-11-19T01:43:36;8.20;99.90
2387;DHT22;49473;50.772;8.768;2023-11-19T01:46:05;8.20;99.90
2387;DHT22;49473;50.772;8.768;2023-11-19T01:48:33;8.30;99.90
2387;DHT22;49473;50.772;8.768;2023-11-19T01:51:03;8.20;99.90
2387;DHT22;49473;50.772;8.768;2023-11-19T01:53:31;8.30;99.90
2387;DHT22;49473;50.772;8.768;2023-11-19T01:55:58;8.30;99.90
2387;DHT22;49473;50.772;8.768;2023-11-19T01:58:27;8.30;99.90
2387;DHT22;49473;50.772;8.768;2023-11-19T02:00:56;8.30;99.90
2387;DHT22;49473;50.772;8.768;2023-11-19T02:03:24;8.30;99.90
2387;DHT22;49473;50.772;8.768;2023-11-19T02:05:52;8.30;99.90
2387;DHT22;49473;50.772;8.768;2023-11-19T02:08:19;8.40;99.90
2387;DHT22;49473;50.772;8.768;2023-11-19T02:10:46;8.40;99.90
2387;DHT22;49473;50.772;8.768;2023-11-19T02:13:12;8.40;99.90
2387;DHT22;49473;50.772;8.768;2023-11-19T02:15:42;8.40;99.90
2387;DHT22;49473;50.772;8.768;2023-11-19T02:18:22;8.40;99.90
2387;DHT22;49473;50.772;8.768;2023-11-19T02:20:49;8.40;99.90
2387;DHT22;49473;50.772;8.768;2023-11-19T02:23:17;8.50;99.90
2387;DHT22;49473;50.772;8.768;2023-11-19T02:25:50;8.40;99.90
2387;DHT22;49473;50.772;8.768;2023-11-19T02:28:20;8.40;99.90
2387;DHT22;49473;50.772;8.768;2023-11-19T02:30:47;8.40;99.90
2387;DHT22;49473;50.772;8.768;2023-11-19T02:33:14;8.40;99.90
2387;DHT22;49473;50.772;8.768;2023-11-19T02:35:41;8.40;99.90
2387;DHT22;49473;50.772;8.768;2023-11-19T02:38:07;8.40;99.90
2387;DHT22;49473;50.772;8.768;2023-11-19T02:40:34;8.40;99.90
2387;DHT22;49473;50.772;8.768;2023-11-19T02:43:01;8.40;99.90
2387;DHT22;49473;50.772;8.768;2023-11-19T02:45:31;8.40;99.90
2387;DHT22;49473;50.772;8.768;2023-11-19T02:47:58;8.50;99.90
2387;DHT22;49473;50.772;8.768;2023-11-19T02:50:27;8.50;99.90
2387;DHT22;49473;50.772;8.768;2023-11-19T02:52:55;8.50;99.90
2387;DHT22;49473;50.772;8.768;2023-11-19T02:55:23;8.60;99.90
2387;DHT22;49473;50.772;8.768;2023-11-19T02:57:50;8.60;99.90
2387;DHT22;49473;50.772;8.768;2023-11-19T03:00:19;8.60;99.90
2387;DHT22;49473;50.772;8.768;2023-11-19T03:02:51;8.60;99.90
2387;DHT22;49473;50.772;8.768;2023-11-19T03:05:25;8.60;99.90
2387;DHT22;49473;50.772;8.768;2023-11-19T03:07:55;8.60;99.90
2387;DHT22;49473;50.772;8.768;2023-11-19T03:10:22;8.60;99.90
2387;DHT22;49473;50.772;8.768;2023-11-19T03:12:49;8.60;99.90
2387;DHT22;49473;50.772;8.768;2023-11-19T03:15:16;8.60;99.90
2387;DHT22;49473;50.772;8.768;2023-11-19T03:17:43;8.70;99.90
2387;DHT22;49473;50.772;8.768;2023-11-19T03:20:12;8.80;99.90
2387;DHT22;49473;50.772;8.768;2023-11-19T03:22:41;8.80;99.90
2387;DHT22;49473;50.772;8.768;2023-11-19T03:25:08;8.90;99.90
2387;DHT22;49473;50.772;8.768;2023-11-19T03:27:35;8.90;99.90
2387;DHT22;49473;50.772;8.768;2023-11-19T03:30:03;8.90;99.90
2387;DHT22;49473;50.772;8.768;2023-11-19T03:32:30;8.90;99.90
2387;DHT22;49473;50.772;8.768;2023-11-19T03:34:57;8.90;99.90
2387;DHT22;49473;50.772;8.768;2023-11-19T03:37:26;9.00;99.90
2387;DHT22;49473;50.772;8.768;2023-11-19T03:39:53;9.00;99.90
2387;DHT22;49473;50.772;8.768;2023-11-19T03:42:20;9.00;99.90
2387;DHT22;49473;50.772;8.768;2023-11-19T03:44:47;9.10;99.90
2387;DHT22;49473;50.772;8.768;2023-11-19T03:47:14;9.10;99.90
2387;DHT22;49473;50.772;8.768;2023-11-19T03:49:41;9.10;99.90
2387;DHT22;49473;50.772;8.768;2023-11-19T03:52:09;9.20;99.90
2387;DHT22;49473;50.772;8.768;2023-11-19T03:54:37;9.20;99.90
2387;DHT22;49473;50.772;8.768;2023-11-19T03:57:04;9.30;99.90
2387;DHT22;49473;50.772;8.768;2023-11-19T03:59:31;9.30;99.90
2387;DHT22;49473;50.772;8.768;2023-11-19T04:01:58;9.30;99.90
2387;DHT22;49473;50.772;8.768;2023-11-19T04:04:26;9.30;99.90
2387;DHT22;49473;50.772;8.768;2023-11-19T04:06:53;9.40;99.90
2387;DHT22;49473;50.772;8.768;2023-11-19T04:09:19;9.40;99.90
2387;DHT22;49473;50.772;8.768;2023-11-19T04:11:48;9.40;99.90
2387;DHT22;49473;50.772;8.768;2023-11-19T04:14:15;9.40;99.90
2387;DHT22;49473;50.772;8.768;2023-11-19T04:16:43;9.50;99.90
2387;DHT22;49473;50.772;8.768;2023-11-19T04:19:10;9.50;99.90
2387;DHT22;49473;50.772;8.768;2023-11-19T04:21:39;9.50;99.90
2387;DHT22;49473;50.772;8.768;2023-11-19T04:24:07;9.60;99.90
2387;DHT22;49473;50.772;8.768;2023-11-19T04:26:34;9.60;99.90
2387;DHT22;49473;50.772;8.768;2023-11-19T04:29:03;9.60;99.90
2387;DHT22;49473;50.772;8.768;2023-11-19T04:31:30;9.60;99.90
2387;DHT22;49473;50.772;8.768;2023-11-19T04:33:58;9.60;99.90
2387;DHT22;49473;50.772;8.768;2023-11-19T04:36:25;9.60;99.90
2387;DHT22;49473;50.772;8.768;2023-11-19T04:38:52;9.70;99.90
2387;DHT22;49473;50.772;8.768;2023-11-19T04:41:19;9.70;99.90
2387;DHT22;49473;50.772;8.768;2023-11-19T04:43:46;9.70;99.90
2387;DHT22;49473;50.772;8.768;2023-11-19T04:46:14;9.70;99.90
2387;DHT22;49473;50.772;8.768;2023-11-19T04:48:41;9.70;99.90
2387;DHT22;49473;50.772;8.768;2023-11-19T04:51:08;9.80;99.90
2387;DHT22;49473;50.772;8.768;2023-11-19T04:53:35;9.90;99.90
2387;DHT22;49473;50.772;8.768;2023-11-19T04:56:07;9.90;99.90
2387;DHT22;49473;50.772;8.768;2023-11-19T04:58:34;9.90;99.90
2387;DHT22;49473;50.772;8.768;2023-11-19T05:01:01;10.00;99.90
2387;DHT22;49473;50.772;8.768;2023-11-19T05:03:30;10.00;99.90
2387;DHT22;49473;50.772;8.768;2023-11-19T05:05:57;10.10;99.90
2387;DHT22;49473;50.772;8.768;2023-11-19T05:08:24;10.10;99.90
2387;DHT22;49473;50.772;8.768;2023-11-19T05:10:50;10.00;99.90
2387;DHT22;49473;50.772;8.768;2023-11-19T05:13:17;10.10;99.90
2387;DHT22;49473;50.772;8.768;2023-11-19T05:15:44;10.10;99.90
2387;DHT22;49473;50.772;8.768;2023-11-19T05:18:11;10.10;99.90
2387;DHT22;49473;50.772;8.768;2023-11-19T05:20:39;10.10;99.90
2387;DHT22;49473;50.772;8.768;2023-11-19T05:23:05;10.10;99.90
2387;DHT22;49473;50.772;8.768;2023-11-19T05:25:32;10.10;99.90
2387;DHT22;49473;50.772;8.768;2023-11-19T05:27:59;10.10;99.90
2387;DHT22;49473;50.772;8.768;2023-11-19T05:30:27;10.10;99.90
2387;DHT22;49473;50.772;8.768;2023-11-19T05:32:53;10.10;99.90
2387;DHT22;49473;50.772;8.768;2023-11-19T05:35:20;10.10;99.90
2387;DHT22;49473;50.772;8.768;2023-11-19T05:37:48;10.20;99.90
2387;DHT22;49473;50.772;8.768;2023-11-19T05:40:15;10.20;99.90
2387;DHT22;49473;50.772;8.768;2023-11-19T05:42:43;10.20;99.90
2387;DHT22;49473;50.772;8.768;2023-11-19T05:45:11;10.20;99.90
2387;DHT22;49473;50.772;8.768;2023-11-19T05:47:38;10.20;99.90
2387;DHT22;49473;50.772;8.768;2023-11-19T05:50:07;10.20;99.90
2387;DHT22;49473;50.772;8.768;2023-11-19T05:52:34;10.30;99.90
2387;DHT22;49473;50.772;8.768;2023-11-19T05:55:02;10.30;99.90
2387;DHT22;49473;50.772;8.768;2023-11-19T05:57:34;10.30;99.90
2387;DHT22;49473;50.772;8.768;2023-11-19T06:00:01;10.30;99.90
2387;DHT22;49473;50.772;8.768;2023-11-19T06:02:29;10.40;99.90
2387;DHT22;49473;50.772;8.768;2023-11-19T06:04:55;10.40;99.90
2387;DHT22;49473;50.772;8.768;2023-11-19T06:07:22;10.40;99.90
2387;DHT22;49473;50.772;8.768;2023-11-19T06:09:49;10.40;99.90
2387;DHT22;49473;50.772;8.768;2023-11-19T06:12:17;10.40;99.90
2387;DHT22;49473;50.772;8.768;2023-11-19T06:14:44;10.40;99.90
2387;DHT22;49473;50.772;8.768;2023-11-19T06:17:10;10.40;99.90
2387;DHT22;49473;50.772;8.768;2023-11-19T06:19:38;10.50;99.90
2387;DHT22;49473;50.772;8.768;2023-11-19T06:22:04;10.40;99.90
2387;DHT22;49473;50.772;8.768;2023-11-19T06:24:32;10.40;99.90
2387;DHT22;49473;50.772;8.768;2023-11-19T06:26:58;10.40;99.90
2387;DHT22;49473;50.772;8.768;2023-11-19T06:29:27;10.40;99.90
2387;DHT22;49473;50.772;8.768;2023-11-19T06:31:53;10.40;99.90
2387;DHT22;49473;50.772;8.768;2023-11-19T06:34:20;10.40;99.90
2387;DHT22;49473;50.772;8.768;2023-11-19T06:36:47;10.40;99.90
2387;DHT22;49473;50.772;8.768;2023-11-19T06:39:14;10.40;99.90
2387;DHT22;49473;50.772;8.768;2023-11-19T06:41:45;10.40;99.90
2387;DHT22;49473;50.772;8.768;2023-11-19T06:44:11;10.40;99.90
2387;DHT22;49473;50.772;8.768;2023-11-19T06:46:40;10.40;99.90
2387;DHT22;49473;50.772;8.768;2023-11-19T06:49:06;10.30;99.90
2387;DHT22;49473;50.772;8.768;2023-11-19T06:51:33;10.30;99.90
2387;DHT22;49473;50.772;8.768;2023-11-19T06:54:00;10.30;99.90
2387;DHT22;49473;50.772;8.768;2023-11-19T06:56:27;10.30;99.90
2387;DHT22;49473;50.772;8.768;2023-11-19T06:58:54;10.30;99.90
2387;DHT22;49473;50.772;8.768;2023-11-19T07:01:20;10.30;99.90
2387;DHT22;49473;50.772;8.768;2023-11-19T07:03:49;10.30;99.90
2387;DHT22;49473;50.772;8.768;2023-11-19T07:06:16;10.30;99.90
2387;DHT22;49473;50.772;8.768;2023-11-19T07:08:43;10.30;99.90
2387;DHT22;49473;50.772;8.768;2023-11-19T07:11:11;10.30;99.90
2387;DHT22;49473;50.772;8.768;2023-11-19T07:13:39;10.30;99.90
2387;DHT22;49473;50.772;8.768;2023-11-19T07:16:07;10.40;99.90
2387;DHT22;49473;50.772;8.768;2023-11-19T07:18:35;10.50;99.90
2387;DHT22;49473;50.772;8.768;2023-11-19T07:21:04;10.50;99.90
2387;DHT22;49473;50.772;8.768;2023-11-19T07:23:31;10.60;99.90
2387;DHT22;49473;50.772;8.768;2023-11-19T07:25:58;10.60;99.90
2387;DHT22;49473;50.772;8.768;2023-11-19T07:28:25;10.60;99.90
2387;DHT22;49473;50.772;8.768;2023-11-19T07:30:54;10.70;99.90
2387;DHT22;49473;50.772;8.768;2023-11-19T07:33:22;10.70;99.90
2387;DHT22;49473;50.772;8.768;2023-11-19T07:35:49;10.70;99.90
2387;DHT22;49473;50.772;8.768;2023-11-19T07:38:17;10.70;99.90
2387;DHT22;49473;50.772;8.768;2023-11-19T07:40:44;10.70;99.90
2387;DHT22;49473;50.772;8.768;2023-11-19T07:43:11;10.70;99.90
2387;DHT22;49473;50.772;8.768;2023-11-19T07:45:39;10.70;99.90
2387;DHT22;49473;50.772;8.768;2023-11-19T07:48:05;10.80;99.90
2387;DHT22;49473;50.772;8.768;2023-11-19T07:50:32;10.80;99.90
2387;DHT22;49473;50.772;8.768;2023-11-19T07:52:59;10.90;99.90
2387;DHT22;49473;50.772;8.768;2023-11-19T07:55:28;11.00;99.90
2387;DHT22;49473;50.772;8.768;2023-11-19T07:57:55;11.00;99.90
2387;DHT22;49473;50.772;8.768;2023-11-19T08:00:22;11.00;99.90
2387;DHT22;49473;50.772;8.768;2023-11-19T08:02:49;11.10;99.90
2387;DHT22;49473;50.772;8.768;2023-11-19T08:05:15;11.20;99.90
2387;DHT22;49473;50.772;8.768;2023-11-19T08:07:42;11.30;99.90
2387;DHT22;49473;50.772;8.768;2023-11-19T08:10:09;11.30;99.90
2387;DHT22;49473;50.772;8.768;2023-11-19T08:12:37;11.30;99.90
2387;DHT22;49473;50.772;8.768;2023-11-19T08:15:05;11.30;99.90
2387;DHT22;49473;50.772;8.768;2023-11-19T08:17:32;11.40;99.90
2387;DHT22;49473;50.772;8.768;2023-11-19T08:19:59;11.50;99.90
2387;DHT22;49473;50.772;8.768;2023-11-19T08:22:26;11.50;99.90
2387;DHT22;49473;50.772;8.768;2023-11-19T08:24:53;11.50;99.90
2387;DHT22;49473;50.772;8.768;2023-11-19T08:27:20;11.50;99.90
2387;DHT22;49473;50.772;8.768;2023-11-19T08:29:53;11.50;99.90
2387;DHT22;49473;50.772;8.768;2023-11-19T08:32:21;11.40;99.90
2387;DHT22;49473;50.772;8.768;2023-11-19T08:34:47;11.40;99.90
2387;DHT22;49473;50.772;8.768;2023-11-19T08:37:14;11.40;99.90
2387;DHT22;49473;50.772;8.768;2023-11-19T08:39:43;11.40;99.90
2387;DHT22;49473;50.772;8.768;2023-11-19T08:42:10;11.40;99.90
2387;DHT22;49473;50.772;8.768;2023-11-19T08:44:37;11.50;99.90
2387;DHT22;49473;50.772;8.768;2023-11-19T08:47:05;11.60;99.90
2387;DHT22;49473;50.772;8.768;2023-11-19T08:49:32;11.80;99.90
2387;DHT22;49473;50.772;8.768;2023-11-19T08:51:58;11.80;99.90
2387;DHT22;49473;50.772;8.768;2023-11-19T08:54:25;11.90;99.90
2387;DHT22;49473;50.772;8.768;2023-11-19T08:56:52;12.10;99.90
2387;DHT22;49473;50.772;8.768;2023-11-19T08:59:19;12.30;99.90
2387;DHT22;49473;50.772;8.768;2023-11-19T09:01:46;12.50;99.90
2387;DHT22;49473;50.772;8.768;2023-11-19T09:04:14;12.90;99.90
2387;DHT22;49473;50.772;8.768;2023-11-19T09:06:41;13.20;99.90
2387;DHT22;49473;50.772;8.768;2023-11-19T09:09:09;13.40;99.90
2387;DHT22;49473;50.772;8.768;2023-11-19T09:11:36;13.50;99.90
2387;DHT22;49473;50.772;8.768;2023-11-19T09:14:03;13.50;99.90
2387;DHT22;49473;50.772;8.768;2023-11-19T09:16:31;13.10;99.90
2387;DHT22;49473;50.772;8.768;2023-11-19T09:18:58;12.90;99.90
2387;DHT22;49473;50.772;8.768;2023-11-19T09:21:27;12.80;99.90
2387;DHT22;49473;50.772;8.768;2023-11-19T09:23:55;12.60;99.90
2387;DHT22;49473;50.772;8.768;2023-11-19T09:26:21;12.40;99.90
2387;DHT22;49473;50.772;8.768;2023-11-19T09:28:48;12.40;99.90
2387;DHT22;49473;50.772;8.768;2023-11-19T09:31:15;12.30;99.90
2387;DHT22;49473;50.772;8.768;2023-11-19T09:33:42;12.20;99.90
2387;DHT22;49473;50.772;8.768;2023-11-19T09:36:10;12.10;99.90
2387;DHT22;49473;50.772;8.768;2023-11-19T09:38:40;12.00;99.90
2387;DHT22;49473;50.772;8.768;2023-11-19T09:41:07;11.90;99.90
2387;DHT22;49473;50.772;8.768;2023-11-19T09:43:38;11.70;99.90
2387;DHT22;49473;50.772;8.768;2023-11-19T09:46:06;11.60;99.90
2387;DHT22;49473;50.772;8.768;2023-11-19T09:48:35;11.60;99.90
2387;DHT22;49473;50.772;8.768;2023-11-19T09:51:04;11.40;99.90
2387;DHT22;49473;50.772;8.768;2023-11-19T09:53:32;11.40;99.90
2387;DHT22;49473;50.772;8.768;2023-11-19T09:56:00;11.30;99.90
2387;DHT22;49473;50.772;8.768;2023-11-19T09:58:29;11.40;99.90
2387;DHT22;49473;50.772;8.768;2023-11-19T10:00:56;11.70;99.90
2387;DHT22;49473;50.772;8.768;2023-11-19T10:03:25;11.90;99.90
2387;DHT22;49473;50.772;8.768;2023-11-19T10:05:54;13.00;99.90
2387;DHT22;49473;50.772;8.768;2023-11-19T10:08:21;14.90;99.90
2387;DHT22;49473;50.772;8.768;2023-11-19T10:10:48;16.70;99.90
2387;DHT22;49473;50.772;8.768;2023-11-19T10:13:16;17.90;99.90
2387;DHT22;49473;50.772;8.768;2023-11-19T10:15:44;19.10;99.90
2387;DHT22;49473;50.772;8.768;2023-11-19T10:18:10;20.40;99.90
2387;DHT22;49473;50.772;8.768;2023-11-19T10:20:38;21.10;99.90
2387;DHT22;49473;50.772;8.768;2023-11-19T10:23:06;21.30;99.90
2387;DHT22;49473;50.772;8.768;2023-11-19T10:25:34;21.90;99.90
2387;DHT22;49473;50.772;8.768;2023-11-19T10:28:02;22.70;99.90
2387;DHT22;49473;50.772;8.768;2023-11-19T10:30:30;23.60;99.90
2387;DHT22;49473;50.772;8.768;2023-11-19T10:33:05;22.90;99.90
2387;DHT22;49473;50.772;8.768;2023-11-19T10:35:33;22.20;99.90
2387;DHT22;49473;50.772;8.768;2023-11-19T10:38:00;21.80;99.90
2387;DHT22;49473;50.772;8.768;2023-11-19T10:40:40;21.70;99.90
2387;DHT22;49473;50.772;8.768;2023-11-19T10:43:07;22.30;99.90
2387;DHT22;49473;50.772;8.768;2023-11-19T10:45:35;22.20;99.90
2387;DHT22;49473;50.772;8.768;2023-11-19T10:48:03;22.30;99.90
2387;DHT22;49473;50.772;8.768;2023-11-19T10:50:32;21.50;99.90
2387;DHT22;49473;50.772;8.768;2023-11-19T10:52:59;20.30;99.90
2387;DHT22;49473;50.772;8.768;2023-11-19T10:55:28;20.60;99.90
2387;DHT22;49473;50.772;8.768;2023-11-19T10:57:59;19.90;99.90
2387;DHT22;49473;50.772;8.768;2023-11-19T11:00:26;19.90;99.90
2387;DHT22;49473;50.772;8.768;2023-11-19T11:03:00;18.90;99.90
2387;DHT22;49473;50.772;8.768;2023-11-19T11:05:27;17.50;99.90
2387;DHT22;49473;50.772;8.768;2023-11-19T11:07:56;17.60;99.90
2387;DHT22;49473;50.772;8.768;2023-11-19T11:10:25;18.10;99.90
2387;DHT22;49473;50.772;8.768;2023-11-19T11:12:53;18.80;99.90
2387;DHT22;49473;50.772;8.768;2023-11-19T11:15:27;18.70;99.90
2387;DHT22;49473;50.772;8.768;2023-11-19T11:17:59;17.80;99.90
2387;DHT22;49473;50.772;8.768;2023-11-19T11:20:26;16.80;99.90
2387;DHT22;49473;50.772;8.768;2023-11-19T11:26:29;15.50;99.90
2387;DHT22;49473;50.772;8.768;2023-11-19T11:29:02;15.00;99.90
2387;DHT22;49473;50.772;8.768;2023-11-19T11:31:36;14.90;99.90
2387;DHT22;49473;50.772;8.768;2023-11-19T11:34:37;15.20;99.90
2387;DHT22;49473;50.772;8.768;2023-11-19T11:37:13;15.50;99.90
2387;DHT22;49473;50.772;8.768;2023-11-19T11:39:42;15.40;99.90
2387;DHT22;49473;50.772;8.768;2023-11-19T11:42:31;15.50;99.90
2387;DHT22;49473;50.772;8.768;2023-11-19T11:44:58;15.60;99.90
2387;DHT22;49473;50.772;8.768;2023-11-19T11:47:26;15.40;99.90
2387;DHT22;49473;50.772;8.768;2023-11-19T11:50:18;15.00;99.90
2387;DHT22;49473;50.772;8.768;2023-11-19T11:53:18;14.90;99.90
2387;DHT22;49473;50.772;8.768;2023-11-19T11:55:58;15.20;99.90
2387;DHT22;49473;50.772;8.768;2023-11-19T11:58:35;15.00;99.90
2387;DHT22;49473;50.772;8.768;2023-11-19T12:01:03;15.20;99.90
2387;DHT22;49473;50.772;8.768;2023-11-19T12:03:31;15.30;99.90
2387;DHT22;49473;50.772;8.768;2023-11-19T12:05:59;15.00;99.90
2387;DHT22;49473;50.772;8.768;2023-11-19T12:08:28;15.00;99.90
2387;DHT22;49473;50.772;8.768;2023-11-19T12:10:56;15.70;99.90
2387;DHT22;49473;50.772;8.768;2023-11-19T12:13:29;16.20;99.90
2387;DHT22;49473;50.772;8.768;2023-11-19T12:16:10;16.20;99.90
2387;DHT22;49473;50.772;8.768;2023-11-19T12:18:39;15.70;99.90
2387;DHT22;49473;50.772;8.768;2023-11-19T12:21:08;15.60;99.90
2387;DHT22;49473;50.772;8.768;2023-11-19T12:23:45;15.70;99.90
2387;DHT22;49473;50.772;8.768;2023-11-19T12:26:39;15.50;99.90
2387;DHT22;49473;50.772;8.768;2023-11-19T12:29:06;15.30;99.90
2387;DHT22;49473;50.772;8.768;2023-11-19T12:31:34;15.20;99.90
2387;DHT22;49473;50.772;8.768;2023-11-19T12:34:10;15.20;99.90
2387;DHT22;49473;50.772;8.768;2023-11-19T12:36:40;15.10;99.90
2387;DHT22;49473;50.772;8.768;2023-11-19T12:39:08;15.00;99.90
2387;DHT22;49473;50.772;8.768;2023-11-19T12:41:53;14.90;99.90
2387;DHT22;49473;50.772;8.768;2023-11-19T12:44:21;14.70;99.90
2387;DHT22;49473;50.772;8.768;2023-11-19T12:47:02;14.50;99.90
2387;DHT22;49473;50.772;8.768;2023-11-19T12:49:30;14.80;99.90
2387;DHT22;49473;50.772;8.768;2023-11-19T12:51:58;15.40;99.90
2387;DHT22;49473;50.772;8.768;2023-11-19T12:54:33;15.90;99.90
2387;DHT22;49473;50.772;8.768;2023-11-19T12:57:00;15.80;99.90
2387;DHT22;49473;50.772;8.768;2023-11-19T12:59:27;15.60;99.90
2387;DHT22;49473;50.772;8.768;2023-11-19T13:01:54;15.10;99.90
2387;DHT22;49473;50.772;8.768;2023-11-19T13:04:21;14.70;99.90
2387;DHT22;49473;50.772;8.768;2023-11-19T13:06:50;14.50;99.90
2387;DHT22;49473;50.772;8.768;2023-11-19T13:09:25;14.20;99.90
2387;DHT22;49473;50.772;8.768;2023-11-19T13:11:52;14.10;99.90
2387;DHT22;49473;50.772;8.768;2023-11-19T13:14:19;14.00;99.90
2387;DHT22;49473;50.772;8.768;2023-11-19T13:16:47;13.90;99.90
2387;DHT22;49473;50.772;8.768;2023-11-19T13:19:14;13.70;99.90
2387;DHT22;49473;50.772;8.768;2023-11-19T13:21:44;13.60;99.90
2387;DHT22;49473;50.772;8.768;2023-11-19T13:24:12;13.40;99.90
2387;DHT22;49473;50.772;8.768;2023-11-19T13:26:40;13.20;99.90
2387;DHT22;49473;50.772;8.768;2023-11-19T13:29:07;13.00;99.90
2387;DHT22;49473;50.772;8.768;2023-11-19T13:31:36;12.70;99.90
2387;DHT22;49473;50.772;8.768;2023-11-19T13:34:02;12.60;99.90
2387;DHT22;49473;50.772;8.768;2023-11-19T13:36:29;12.50;99.90
2387;DHT22;49473;50.772;8.768;2023-11-19T13:38:56;12.40;99.90
2387;DHT22;49473;50.772;8.768;2023-11-19T13:41:25;12.40;99.90
2387;DHT22;49473;50.772;8.768;2023-11-19T13:43:53;12.40;99.90
2387;DHT22;49473;50.772;8.768;2023-11-19T13:46:20;12.40;99.90
2387;DHT22;49473;50.772;8.768;2023-11-19T13:48:47;12.50;99.90
2387;DHT22;49473;50.772;8.768;2023-11-19T13:51:15;12.50;99.90
2387;DHT22;49473;50.772;8.768;2023-11-19T13:53:42;12.40;99.90
2387;DHT22;49473;50.772;8.768;2023-11-19T13:56:09;12.40;99.90
2387;DHT22;49473;50.772;8.768;2023-11-19T13:58:36;12.30;99.90
2387;DHT22;49473;50.772;8.768;2023-11-19T14:01:05;12.30;99.90
2387;DHT22;49473;50.772;8.768;2023-11-19T14:03:32;12.30;99.90
2387;DHT22;49473;50.772;8.768;2023-11-19T14:05:59;12.30;99.90
2387;DHT22;49473;50.772;8.768;2023-11-19T14:08:26;12.30;99.90
2387;DHT22;49473;50.772;8.768;2023-11-19T14:10:53;12.30;99.90
2387;DHT22;49473;50.772;8.768;2023-11-19T14:13:21;12.30;99.90
2387;DHT22;49473;50.772;8.768;2023-11-19T14:15:49;12.30;99.90
2387;DHT22;49473;50.772;8.768;2023-11-19T14:18:17;12.30;99.90
2387;DHT22;49473;50.772;8.768;2023-11-19T14:20:44;12.20;99.90
2387;DHT22;49473;50.772;8.768;2023-11-19T14:23:11;12.20;99.90
2387;DHT22;49473;50.772;8.768;2023-11-19T14:25:38;12.10;99.90
2387;DHT22;49473;50.772;8.768;2023-11-19T14:28:05;12.20;99.90
2387;DHT22;49473;50.772;8.768;2023-11-19T14:30:31;12.20;99.90
2387;DHT22;49473;50.772;8.768;2023-11-19T14:32:59;12.10;99.90
2387;DHT22;49473;50.772;8.768;2023-11-19T14:35:27;12.10;99.90
2387;DHT22;49473;50.772;8.768;2023-11-19T14:37:55;12.10;99.90
2387;DHT22;49473;50.772;8.768;2023-11-19T14:40:22;12.10;99.90
2387;DHT22;49473;50.772;8.768;2023-11-19T14:42:49;12.10;99.90
2387;DHT22;49473;50.772;8.768;2023-11-19T14:45:16;12.10;99.90
2387;DHT22;49473;50.772;8.768;2023-11-19T14:47:43;12.20;99.90
2387;DHT22;49473;50.772;8.768;2023-11-19T14:50:10;12.20;99.90
2387;DHT22;49473;50.772;8.768;2023-11-19T14:52:39;12.20;99.90
2387;DHT22;49473;50.772;8.768;2023-11-19T14:55:06;12.00;99.90
2387;DHT22;49473;50.772;8.768;2023-11-19T14:57:33;12.00;99.90
2387;DHT22;49473;50.772;8.768;2023-11-19T15:00:01;11.90;99.90
2387;DHT22;49473;50.772;8.768;2023-11-19T15:02:38;11.90;99.90
2387;DHT22;49473;50.772;8.768;2023-11-19T15:05:05;11.90;99.90
2387;DHT22;49473;50.772;8.768;2023-11-19T15:07:32;11.80;99.90
2387;DHT22;49473;50.772;8.768;2023-11-19T15:10:02;11.80;99.90
2387;DHT22;49473;50.772;8.768;2023-11-19T15:12:34;11.70;99.90
2387;DHT22;49473;50.772;8.768;2023-11-19T15:15:06;11.60;99.90
2387;DHT22;49473;50.772;8.768;2023-11-19T15:17:33;11.50;99.90
2387;DHT22;49473;50.772;8.768;2023-11-19T15:20:00;11.50;99.90
2387;DHT22;49473;50.772;8.768;2023-11-19T15:22:26;11.30;99.90
2387;DHT22;49473;50.772;8.768;2023-11-19T15:24:53;11.20;99.90
2387;DHT22;49473;50.772;8.768;2023-11-19T15:27:21;11.10;99.90
2387;DHT22;49473;50.772;8.768;2023-11-19T15:29:48;11.00;99.90
2387;DHT22;49473;50.772;8.768;2023-11-19T15:32:15;11.00;99.90
2387;DHT22;49473;50.772;8.768;2023-11-19T15:34:42;10.90;99.90
2387;DHT22;49473;50.772;8.768;2023-11-19T15:37:09;10.80;99.90
2387;DHT22;49473;50.772;8.768;2023-11-19T15:39:38;10.80;99.90
2387;DHT22;49473;50.772;8.768;2023-11-19T15:42:05;10.80;99.90
2387;DHT22;49473;50.772;8.768;2023-11-19T15:44:33;10.80;99.90
2387;DHT22;49473;50.772;8.768;2023-11-19T15:47:00;10.80;99.90
2387;DHT22;49473;50.772;8.768;2023-11-19T15:49:28;10.80;99.90
2387;DHT22;49473;50.772;8.768;2023-11-19T15:51:55;10.80;99.90
2387;DHT22;49473;50.772;8.768;2023-11-19T15:54:23;10.90;99.90
2387;DHT22;49473;50.772;8.768;2023-11-19T15:56:49;10.90;99.90
2387;DHT22;49473;50.772;8.768;2023-11-19T15:59:16;10.90;99.90